createdAt,value
2022-10-29T00:00:45.425Z,101325.75
2022-10-29T00:03:13.303Z,101335.81
2022-10-29T00:05:42.561Z,101336.47
2022-10-29T00:08:10.653Z,101326.72
2022-10-29T00:10:38.488Z,101326.03
2022-10-29T00:13:06.390Z,101336.72
2022-10-29T00:15:34.281Z,101329.88
2022-10-29T00:18:02.166Z,101335.84
2022-10-29T00:20:30.290Z,101337.59
2022-10-29T00:22:59.596Z,101326.41
2022-10-29T00:25:27.471Z,101328.44
2022-10-29T00:27:57.314Z,101327.44
2022-10-29T00:30:25.423Z,101323.38
2022-10-29T00:32:57.570Z,101326.81
2022-10-29T00:35:27.837Z,101329.06
2022-10-29T00:37:59.564Z,101329.56
2022-10-29T00:40:29.159Z,101327.44
2022-10-29T00:43:11.971Z,101331.94
2022-10-29T00:45:41.865Z,101333.38
2022-10-29T00:48:09.846Z,101337.16
2022-10-29T00:50:40.027Z,101338.59
2022-10-29T00:53:08.006Z,101337.09
2022-10-29T00:55:37.625Z,101334.31
2022-10-29T00:58:05.861Z,101345.47
2022-10-29T01:00:35.111Z,101338.31
2022-10-29T01:03:03.078Z,101344.84
2022-10-29T01:05:31.596Z,101339.34
2022-10-29T01:07:59.581Z,101335.84
2022-10-29T01:10:32.971Z,101335.63
2022-10-29T01:13:11.758Z,101325.31
2022-10-29T01:15:45.379Z,101327.06
2022-10-29T01:18:18.649Z,101321.16
2022-10-29T01:21:00.661Z,101324.03
2022-10-29T01:23:45.286Z,101321.03
2022-10-29T01:26:23.024Z,101319.97
2022-10-29T01:29:03.690Z,101310.31
2022-10-29T01:31:35.321Z,101314.72
2022-10-29T01:34:07.602Z,101305.44
2022-10-29T01:36:39.613Z,101307.81
2022-10-29T01:39:10.249Z,101305.50
2022-10-29T01:41:42.364Z,101306.94
2022-10-29T01:44:16.396Z,101304.91
2022-10-29T01:46:48.011Z,101301.03
2022-10-29T01:49:18.992Z,101304.06
2022-10-29T01:51:47.564Z,101298.06
2022-10-29T01:54:15.450Z,101289.28
2022-10-29T01:56:43.330Z,101287.16
2022-10-29T01:59:22.929Z,101282.06
2022-10-29T02:02:07.530Z,101277.88
2022-10-29T02:04:44.420Z,101279.72
2022-10-29T02:07:18.307Z,101282.38
2022-10-29T02:09:53.035Z,101288.06
2022-10-29T02:12:24.276Z,101284.59
2022-10-29T02:14:54.522Z,101287.16
2022-10-29T02:17:24.370Z,101271.88
2022-10-29T02:19:52.206Z,101276.34
2022-10-29T02:22:20.185Z,101278.19
2022-10-29T02:24:48.089Z,101269.84
2022-10-29T02:27:16.162Z,101270.56
2022-10-29T02:29:44.191Z,101274.31
2022-10-29T02:32:12.159Z,101272.78
2022-10-29T02:34:41.439Z,101269.50
2022-10-29T02:37:09.329Z,101265.16
2022-10-29T02:39:37.388Z,101267.09
2022-10-29T02:42:05.569Z,101266.38
2022-10-29T02:44:33.726Z,101258.13
2022-10-29T02:47:01.749Z,101248.53
2022-10-29T02:49:29.761Z,101248.25
2022-10-29T02:51:59.198Z,101253.75
2022-10-29T02:54:27.050Z,101252.72
2022-10-29T02:56:54.993Z,101254.16
2022-10-29T02:59:22.926Z,101255.16
2022-10-29T03:01:51.231Z,101256.09
2022-10-29T03:04:19.310Z,101238.25
2022-10-29T03:06:47.279Z,101237.31
2022-10-29T03:09:16.749Z,101238.66
2022-10-29T03:11:44.782Z,101240.59
2022-10-29T03:14:13.056Z,101242.72
2022-10-29T03:16:41.065Z,101246.28
2022-10-29T03:19:08.867Z,101236.72
2022-10-29T03:21:36.764Z,101247.50
2022-10-29T03:24:05.072Z,101239.88
2022-10-29T03:26:34.462Z,101238.25
2022-10-29T03:29:02.414Z,101235.38
2022-10-29T03:31:30.586Z,101234.09
2022-10-29T03:33:58.483Z,101235.50
2022-10-29T03:36:26.481Z,101231.81
2022-10-29T03:38:54.553Z,101228.97
2022-10-29T03:41:22.448Z,101222.38
2022-10-29T03:43:52.091Z,101236.63
2022-10-29T03:46:20.398Z,101233.75
2022-10-29T03:48:50.027Z,101235.69
2022-10-29T03:51:18.384Z,101241.28
2022-10-29T03:53:46.314Z,101241.28
2022-10-29T03:56:14.245Z,101235.88
2022-10-29T03:58:42.112Z,101234.53
2022-10-29T04:01:12.058Z,101224.16
2022-10-29T04:03:42.209Z,101227.84
2022-10-29T04:06:11.238Z,101228.44
2022-10-29T04:08:39.558Z,101232.53
2022-10-29T04:11:08.554Z,101234.44
2022-10-29T04:13:36.954Z,101234.97
2022-10-29T04:16:04.935Z,101235.56
2022-10-29T04:18:34.248Z,101234.75
2022-10-29T04:22:40.370Z,101234.97
2022-10-29T04:29:27.852Z,101221.63
2022-10-29T04:31:55.758Z,101210.09
2022-10-29T04:34:25.039Z,101201.47
2022-10-29T04:36:53.582Z,101210.53
2022-10-29T04:39:23.361Z,101205.63
2022-10-29T04:41:51.556Z,101221.63
2022-10-29T04:44:20.360Z,101216.94
2022-10-29T04:46:50.831Z,101203.78
2022-10-29T04:49:19.650Z,101212.75
2022-10-29T04:51:49.531Z,101213.38
2022-10-29T04:54:17.516Z,101204.81
2022-10-29T04:56:46.035Z,101208.47
2022-10-29T04:59:14.406Z,101212.16
2022-10-29T05:01:42.614Z,101209.19
2022-10-29T05:04:10.558Z,101202.38
2022-10-29T05:06:38.472Z,101198.28
2022-10-29T05:09:07.716Z,101193.41
2022-10-29T05:11:36.477Z,101185.16
2022-10-29T05:14:04.563Z,101174.69
2022-10-29T05:16:33.578Z,101183.94
2022-10-29T05:19:01.443Z,101170.13
2022-10-29T05:21:31.572Z,101172.66
2022-10-29T05:23:59.717Z,101171.13
2022-10-29T05:26:31.283Z,101171.84
2022-10-29T05:28:59.487Z,101163.50
2022-10-29T05:31:28.042Z,101166.16
2022-10-29T05:33:56.168Z,101149.53
2022-10-29T05:36:24.320Z,101145.66
2022-10-29T05:38:52.240Z,101159.59
2022-10-29T05:41:20.249Z,101153.59
2022-10-29T05:43:50.710Z,101157.97
2022-10-29T05:46:18.811Z,101161.03
2022-10-29T05:48:46.822Z,101161.34
2022-10-29T05:51:15.937Z,101163.28
2022-10-29T05:53:44.706Z,101150.94
2022-10-29T05:56:12.984Z,101156.44
2022-10-29T05:58:40.941Z,101163.28
2022-10-29T06:01:11.361Z,101166.53
2022-10-29T06:03:39.351Z,101168.56
2022-10-29T06:06:07.695Z,101162.44
2022-10-29T06:08:35.522Z,101166.31
2022-10-29T06:11:03.770Z,101158.69
2022-10-29T06:13:31.743Z,101158.06
2022-10-29T06:16:00.399Z,101159.41
2022-10-29T06:18:33.113Z,101155.63
2022-10-29T06:21:03.195Z,101156.94
2022-10-29T06:23:31.888Z,101163.25
2022-10-29T06:26:00.122Z,101160.81
2022-10-29T06:28:34.454Z,101161.84
2022-10-29T06:31:02.803Z,101165.00
2022-10-29T06:33:32.228Z,101163.22
2022-10-29T06:36:00.357Z,101164.25
2022-10-29T06:38:28.325Z,101156.69
2022-10-29T06:40:56.531Z,101165.66
2022-10-29T06:43:24.571Z,101164.72
2022-10-29T06:45:52.495Z,101159.72
2022-10-29T06:48:22.345Z,101156.06
2022-10-29T06:50:52.462Z,101159.78
2022-10-29T06:53:20.929Z,101159.19
2022-10-29T06:55:49.228Z,101169.47
2022-10-29T06:58:18.455Z,101163.91
2022-10-29T07:00:47.133Z,101170.97
2022-10-29T07:03:15.735Z,101159.91
2022-10-29T07:05:43.901Z,101153.81
2022-10-29T07:08:13.638Z,101155.59
2022-10-29T07:10:41.627Z,101153.03
2022-10-29T07:13:10.575Z,101162.31
2022-10-29T07:15:38.534Z,101162.81
2022-10-29T07:18:07.739Z,101154.22
2022-10-29T07:20:36.797Z,101158.16
2022-10-29T07:23:04.858Z,101157.88
2022-10-29T07:25:37.076Z,101162.78
2022-10-29T07:28:05.956Z,101160.09
2022-10-29T07:30:34.598Z,101154.28
2022-10-29T07:33:02.575Z,101154.97
2022-10-29T07:35:30.578Z,101152.56
2022-10-29T07:38:05.368Z,101164.13
2022-10-29T07:40:40.638Z,101176.16
2022-10-29T07:43:09.910Z,101167.72
2022-10-29T07:45:37.814Z,101169.66
2022-10-29T07:48:07.441Z,101174.53
2022-10-29T07:50:35.556Z,101177.47
2022-10-29T07:53:04.150Z,101168.69
2022-10-29T07:55:32.300Z,101172.59
2022-10-29T07:58:02.445Z,101176.41
2022-10-29T08:00:30.934Z,101181.31
2022-10-29T08:03:02.368Z,101183.63
2022-10-29T08:05:33.056Z,101188.28
2022-10-29T08:08:01.342Z,101187.50
2022-10-29T08:10:30.334Z,101186.84
2022-10-29T08:12:59.660Z,101188.34
2022-10-29T08:15:30.783Z,101179.59
2022-10-29T08:17:59.491Z,101175.97
2022-10-29T08:20:29.826Z,101179.53
2022-10-29T08:23:00.015Z,101174.66
2022-10-29T08:25:28.645Z,101169.72
2022-10-29T08:28:01.627Z,101171.91
2022-10-29T08:30:31.959Z,101164.88
2022-10-29T08:33:00.272Z,101151.97
2022-10-29T08:35:32.273Z,101151.56
2022-10-29T08:38:00.362Z,101150.91
2022-10-29T08:40:30.163Z,101151.13
2022-10-29T08:43:19.292Z,101143.75
2022-10-29T08:45:49.293Z,101152.28
2022-10-29T08:48:23.172Z,101152.09
2022-10-29T08:50:54.348Z,101145.81
2022-10-29T08:53:27.606Z,101146.28
2022-10-29T08:55:58.305Z,101139.59
2022-10-29T08:58:37.918Z,101142.63
2022-10-29T09:01:11.737Z,101131.97
2022-10-29T09:03:41.335Z,101122.63
2022-10-29T09:06:15.295Z,101124.84
2022-10-29T09:08:49.181Z,101134.69
2022-10-29T09:11:26.290Z,101124.16
2022-10-29T09:14:03.728Z,101131.94
2022-10-29T09:16:43.821Z,101134.72
2022-10-29T09:19:25.919Z,101135.25
2022-10-29T09:21:57.748Z,101142.28
2022-10-29T09:24:30.886Z,101136.31
2022-10-29T09:27:00.441Z,101130.72
2022-10-29T09:29:49.382Z,101123.94
2022-10-29T09:32:23.201Z,101127.69
2022-10-29T09:34:52.343Z,101128.69
2022-10-29T09:37:23.043Z,101129.22
2022-10-29T09:39:51.020Z,101134.03
2022-10-29T09:42:21.254Z,101127.28
2022-10-29T09:44:52.687Z,101122.31
2022-10-29T09:47:27.124Z,101132.50
2022-10-29T09:50:07.243Z,101129.00
2022-10-29T09:52:37.906Z,101127.16
2022-10-29T09:55:06.877Z,101126.66
2022-10-29T09:57:36.663Z,101121.78
2022-10-29T10:00:05.905Z,101122.75
2022-10-29T10:02:37.682Z,101120.59
2022-10-29T10:05:06.964Z,101116.28
2022-10-29T10:07:34.782Z,101110.59
2022-10-29T10:10:03.538Z,101095.59
2022-10-29T10:12:45.702Z,101098.81
2022-10-29T10:15:23.899Z,101096.50
2022-10-29T10:17:58.195Z,101097.72
2022-10-29T10:20:28.996Z,101099.56
2022-10-29T10:22:57.284Z,101100.47
2022-10-29T10:25:33.249Z,101107.72
2022-10-29T10:28:04.082Z,101106.44
2022-10-29T10:30:32.007Z,101101.47
2022-10-29T10:33:13.235Z,101106.31
2022-10-29T10:35:41.573Z,101098.97
2022-10-29T10:38:10.129Z,101096.00
2022-10-29T10:40:38.240Z,101090.88
2022-10-29T10:43:08.310Z,101075.13
2022-10-29T10:45:39.176Z,101076.09
2022-10-29T10:48:09.466Z,101068.34
2022-10-29T10:50:41.958Z,101075.03
2022-10-29T10:53:17.469Z,101075.72
2022-10-29T10:55:48.324Z,101078.06
2022-10-29T10:58:21.303Z,101069.00
2022-10-29T11:00:53.489Z,101056.25
2022-10-29T11:03:26.114Z,101059.25
2022-10-29T11:05:59.860Z,101062.88
2022-10-29T11:08:29.521Z,101051.28
2022-10-29T11:10:59.991Z,101047.13
2022-10-29T11:13:30.078Z,101050.34
2022-10-29T11:15:59.544Z,101047.28
2022-10-29T11:18:31.013Z,101047.38
2022-10-29T11:21:06.183Z,101051.19
2022-10-29T11:23:38.808Z,101045.03
2022-10-29T11:26:09.137Z,101038.78
2022-10-29T11:28:40.166Z,101048.16
2022-10-29T11:31:12.958Z,101047.56
2022-10-29T11:33:44.949Z,101037.19
2022-10-29T11:36:18.120Z,101035.28
2022-10-29T11:38:48.529Z,101039.38
2022-10-29T11:41:23.075Z,101037.31
2022-10-29T11:43:51.210Z,101034.47
2022-10-29T11:46:24.696Z,101030.31
2022-10-29T11:48:57.728Z,101025.69
2022-10-29T11:51:32.230Z,101032.75
2022-10-29T11:54:02.195Z,101034.13
2022-10-29T11:56:42.513Z,101034.41
2022-10-29T11:59:14.639Z,101037.78
2022-10-29T12:01:47.223Z,101035.66
2022-10-29T12:04:24.245Z,101025.91
2022-10-29T12:07:01.000Z,101027.13
2022-10-29T12:09:40.727Z,101025.69
2022-10-29T12:12:12.784Z,101013.28
2022-10-29T12:14:45.632Z,101021.13
2022-10-29T12:17:14.942Z,101014.34
2022-10-29T12:19:47.436Z,101012.97
2022-10-29T12:22:32.746Z,101017.31
2022-10-29T12:25:08.089Z,101009.69
2022-10-29T12:27:42.093Z,101006.25
2022-10-29T12:30:11.238Z,100994.84
2022-10-29T12:32:52.742Z,100999.53
2022-10-29T12:35:28.797Z,101000.25
2022-10-29T12:38:06.688Z,100997.06
2022-10-29T12:40:35.875Z,101001.69
2022-10-29T12:43:05.327Z,100995.28
2022-10-29T12:45:43.453Z,100983.03
2022-10-29T12:48:27.171Z,100983.00
2022-10-29T12:50:59.161Z,100984.28
2022-10-29T12:53:31.759Z,100981.78
2022-10-29T12:55:59.981Z,100980.16
2022-10-29T12:58:48.646Z,100976.13
2022-10-29T13:02:05.478Z,100971.44
2022-10-29T13:04:27.818Z,100974.13
2022-10-29T13:07:01.106Z,100965.66
2022-10-29T13:09:31.344Z,100965.38
2022-10-29T13:11:59.771Z,100961.75
2022-10-29T13:14:30.417Z,100963.41
2022-10-29T13:16:59.344Z,100954.56
2022-10-29T13:19:35.753Z,100948.16
2022-10-29T13:22:05.322Z,100951.75
2022-10-29T13:24:34.749Z,100950.50
2022-10-29T13:27:05.798Z,100947.94
2022-10-29T13:29:47.609Z,100948.69
2022-10-29T13:32:34.731Z,100946.78
2022-10-29T13:35:03.795Z,100942.00
2022-10-29T13:37:49.713Z,100940.00
2022-10-29T13:40:36.421Z,100938.03
2022-10-29T13:43:10.624Z,100933.66
2022-10-29T13:45:40.787Z,100936.06
2022-10-29T13:48:14.286Z,100934.72
2022-10-29T13:50:43.261Z,100922.31
2022-10-29T13:53:14.256Z,100925.78
2022-10-29T13:55:44.979Z,100928.63
2022-10-29T13:58:17.356Z,100920.06
2022-10-29T14:00:47.241Z,100918.81
2022-10-29T14:03:19.013Z,100914.59
2022-10-29T14:05:50.280Z,100918.03
2022-10-29T14:08:21.413Z,100921.19
2022-10-29T14:10:51.468Z,100908.94
2022-10-29T14:13:26.944Z,100911.50
2022-10-29T14:16:02.342Z,100902.34
2022-10-29T14:18:32.224Z,100909.47
2022-10-29T14:21:00.939Z,100909.59
2022-10-29T14:23:29.639Z,100905.44
2022-10-29T14:26:00.089Z,100904.72
2022-10-29T14:28:30.256Z,100896.22
2022-10-29T14:31:02.481Z,100895.75
2022-10-29T14:33:31.675Z,100895.88
2022-10-29T14:36:02.496Z,100895.59
2022-10-29T14:38:34.432Z,100892.81
2022-10-29T14:41:02.700Z,100887.97
2022-10-29T14:43:32.066Z,100883.50
2022-10-29T14:46:10.698Z,100890.16
2022-10-29T14:48:39.526Z,100889.47
2022-10-29T14:51:07.466Z,100893.44
2022-10-29T14:53:41.509Z,100894.66
2022-10-29T14:56:11.771Z,100897.44
2022-10-29T14:58:42.269Z,100896.25
2022-10-29T15:01:14.018Z,100904.59
2022-10-29T15:03:42.519Z,100903.88
2022-10-29T15:06:15.941Z,100904.66
2022-10-29T15:08:44.822Z,100902.09
2022-10-29T15:11:31.487Z,100889.94
2022-10-29T15:14:01.159Z,100892.97
2022-10-29T15:16:29.988Z,100888.03
2022-10-29T15:18:59.154Z,100885.47
2022-10-29T15:21:29.806Z,100874.13
2022-10-29T15:24:00.668Z,100879.50
2022-10-29T15:26:28.533Z,100880.75
2022-10-29T15:28:57.623Z,100884.50
2022-10-29T15:31:30.596Z,100872.91
2022-10-29T15:34:01.175Z,100872.63
2022-10-29T15:36:44.957Z,100875.44
2022-10-29T15:39:21.027Z,100876.66
2022-10-29T15:41:49.733Z,100874.69
2022-10-29T15:44:31.855Z,100876.19
2022-10-29T15:47:02.041Z,100871.97
2022-10-29T15:49:32.867Z,100881.19
2022-10-29T15:52:01.274Z,100881.31
2022-10-29T15:54:37.454Z,100881.81
2022-10-29T15:57:10.431Z,100882.69
2022-10-29T15:59:40.786Z,100872.94
2022-10-29T16:02:14.815Z,100875.88
2022-10-29T16:04:43.149Z,100873.06
2022-10-29T16:07:12.895Z,100869.66
2022-10-29T16:09:44.724Z,100870.16
2022-10-29T16:12:13.175Z,100867.53
2022-10-29T16:14:41.504Z,100875.06
2022-10-29T16:17:13.227Z,100870.13
2022-10-29T16:19:42.705Z,100869.91
2022-10-29T16:22:12.789Z,100880.44
2022-10-29T16:24:40.679Z,100877.38
2022-10-29T16:27:13.843Z,100881.41
2022-10-29T16:29:41.924Z,100883.28
2022-10-29T16:32:10.683Z,100881.53
2022-10-29T16:34:38.625Z,100893.81
2022-10-29T16:37:10.769Z,100890.47
2022-10-29T16:39:38.925Z,100888.28
2022-10-29T16:42:07.394Z,100892.34
2022-10-29T16:44:35.443Z,100888.63
2022-10-29T16:47:03.357Z,100887.31
2022-10-29T16:49:31.460Z,100887.31
2022-10-29T16:51:59.532Z,100880.97
2022-10-29T16:54:28.749Z,100873.34
2022-10-29T16:56:57.864Z,100883.09
2022-10-29T16:59:25.733Z,100871.50
2022-10-29T17:01:53.779Z,100878.81
2022-10-29T17:04:21.777Z,100870.25
2022-10-29T17:06:49.884Z,100867.28
2022-10-29T17:09:20.696Z,100858.63
2022-10-29T17:11:54.332Z,100859.50
2022-10-29T17:14:22.379Z,100871.84
2022-10-29T17:16:50.455Z,100867.78
2022-10-29T17:19:18.647Z,100865.25
2022-10-29T17:21:46.712Z,100866.19
2022-10-29T17:24:14.815Z,100870.19
2022-10-29T17:26:42.725Z,100877.78
2022-10-29T17:29:25.835Z,100886.69
2022-10-29T17:31:57.496Z,100879.75
2022-10-29T17:34:26.088Z,100873.88
2022-10-29T17:36:54.004Z,100867.25
2022-10-29T17:39:22.218Z,100861.25
2022-10-29T17:41:50.271Z,100866.66
2022-10-29T17:44:21.062Z,100865.03
2022-10-29T17:46:49.212Z,100865.38
2022-10-29T17:49:21.671Z,100864.66
2022-10-29T17:51:50.386Z,100869.28
2022-10-29T17:54:18.204Z,100858.88
2022-10-29T17:56:46.152Z,100864.13
2022-10-29T17:59:13.996Z,100859.28
2022-10-29T18:01:57.952Z,100857.44
2022-10-29T18:04:26.643Z,100858.88
2022-10-29T18:06:56.354Z,100871.13
2022-10-29T18:09:24.564Z,100871.38
2022-10-29T18:11:52.486Z,100861.44
2022-10-29T18:14:20.334Z,100863.44
2022-10-29T18:16:50.243Z,100855.91
2022-10-29T18:19:18.305Z,100856.56
2022-10-29T18:21:46.191Z,100848.16
2022-10-29T18:24:14.013Z,100858.50
2022-10-29T18:26:42.141Z,100853.16
2022-10-29T18:29:12.354Z,100857.69
2022-10-29T18:31:45.070Z,100865.72
2022-10-29T18:34:15.425Z,100854.97
2022-10-29T18:36:44.462Z,100850.13
2022-10-29T18:39:12.867Z,100845.81
2022-10-29T18:41:41.686Z,100856.94
2022-10-29T18:44:09.795Z,100845.41
2022-10-29T18:46:40.317Z,100847.03
2022-10-29T18:49:10.562Z,100834.41
2022-10-29T18:51:39.807Z,100840.16
2022-10-29T18:54:07.798Z,100832.78
2022-10-29T18:56:35.845Z,100825.88
2022-10-29T18:59:03.689Z,100835.31
2022-10-29T19:01:32.608Z,100834.34
2022-10-29T19:04:01.438Z,100821.69
2022-10-29T19:06:30.061Z,100834.34
2022-10-29T19:09:03.831Z,100828.56
2022-10-29T19:11:32.328Z,100824.69
2022-10-29T19:14:01.970Z,100825.03
2022-10-29T19:16:30.634Z,100820.72
2022-10-29T19:19:00.131Z,100815.72
2022-10-29T19:21:28.277Z,100820.63
2022-10-29T19:23:56.851Z,100825.03
2022-10-29T19:26:27.243Z,100825.91
2022-10-29T19:28:55.944Z,100828.19
2022-10-29T19:31:26.216Z,100821.72
2022-10-29T19:33:56.727Z,100822.06
2022-10-29T19:36:30.158Z,100829.59
2022-10-29T19:38:59.038Z,100836.44
2022-10-29T19:41:29.282Z,100832.06
2022-10-29T19:43:59.283Z,100833.38
2022-10-29T19:46:27.101Z,100822.22
2022-10-29T19:48:56.011Z,100827.72
2022-10-29T19:51:24.328Z,100826.13
2022-10-29T19:53:52.394Z,100834.56
2022-10-29T19:56:21.372Z,100842.06
2022-10-29T19:58:50.643Z,100845.81
2022-10-29T20:01:20.558Z,100843.72
2022-10-29T20:03:49.155Z,100842.56
2022-10-29T20:06:17.668Z,100829.59
2022-10-29T20:08:45.589Z,100831.22
2022-10-29T20:11:14.471Z,100832.38
2022-10-29T20:13:42.601Z,100847.63
2022-10-29T20:16:14.351Z,100852.47
2022-10-29T20:18:42.428Z,100851.00
2022-10-29T20:21:10.528Z,100851.19
2022-10-29T20:23:38.594Z,100843.38
2022-10-29T20:26:07.336Z,100849.88
2022-10-29T20:28:35.615Z,100847.59
2022-10-29T20:31:30.016Z,100845.16
2022-10-29T20:33:59.403Z,100837.69
2022-10-29T20:36:29.460Z,100841.44
2022-10-29T20:38:57.976Z,100839.16
2022-10-29T20:41:25.915Z,100838.00
2022-10-29T20:43:54.432Z,100842.41
2022-10-29T20:46:22.648Z,100829.72
2022-10-29T20:48:51.808Z,100832.50
2022-10-29T20:51:19.860Z,100839.16
2022-10-29T20:53:47.792Z,100834.28
2022-10-29T20:56:16.540Z,100834.28
2022-10-29T20:58:45.104Z,100837.88
2022-10-29T21:01:14.820Z,100834.13
2022-10-29T21:03:47.699Z,100849.41
2022-10-29T21:06:18.447Z,100855.06
2022-10-29T21:08:47.012Z,100847.13
2022-10-29T21:11:16.050Z,100858.50
2022-10-29T21:13:44.339Z,100855.25
2022-10-29T21:16:16.234Z,100853.66
2022-10-29T21:18:45.691Z,100858.50
2022-10-29T21:21:14.092Z,100855.91
2022-10-29T21:23:43.939Z,100863.50
2022-10-29T21:26:13.023Z,100859.47
2022-10-29T21:28:40.912Z,100861.56
2022-10-29T21:31:11.076Z,100870.97
2022-10-29T21:33:39.191Z,100869.69
2022-10-29T21:36:08.615Z,100871.78
2022-10-29T21:38:36.993Z,100867.41
2022-10-29T21:41:09.045Z,100864.66
2022-10-29T21:43:37.235Z,100871.28
2022-10-29T21:46:05.095Z,100870.47
2022-10-29T21:48:32.902Z,100869.03
2022-10-29T21:51:05.142Z,100870.16
2022-10-29T21:53:33.230Z,100878.91
2022-10-29T21:56:01.912Z,100879.25
2022-10-29T21:58:31.536Z,100882.66
2022-10-29T22:01:02.933Z,100878.28
2022-10-29T22:03:31.703Z,100880.69
2022-10-29T22:06:06.724Z,100888.66
2022-10-29T22:08:35.082Z,100878.13
2022-10-29T22:11:03.812Z,100880.06
2022-10-29T22:13:37.873Z,100877.63
2022-10-29T22:16:07.003Z,100880.88
2022-10-29T22:18:35.305Z,100878.59
2022-10-29T22:21:07.487Z,100882.34
2022-10-29T22:23:36.341Z,100880.72
2022-10-29T22:26:04.695Z,100875.34
2022-10-29T22:28:33.917Z,100878.28
2022-10-29T22:31:02.637Z,100878.44
2022-10-29T22:33:30.899Z,100874.88
2022-10-29T22:36:04.560Z,100875.53
2022-10-29T22:38:32.595Z,100874.22
2022-10-29T22:41:04.187Z,100877.28
2022-10-29T22:43:32.807Z,100876.81
2022-10-29T22:46:02.100Z,100869.69
2022-10-29T22:48:29.964Z,100880.69
2022-10-29T22:51:05.289Z,100877.94
2022-10-29T22:53:34.873Z,100871.28
2022-10-29T22:56:08.608Z,100883.13
2022-10-29T22:58:41.821Z,100877.78
2022-10-29T23:01:16.539Z,100878.28
2022-10-29T23:03:44.900Z,100878.75
2022-10-29T23:06:14.128Z,100881.03
2022-10-29T23:08:44.223Z,100882.16
2022-10-29T23:11:16.610Z,100874.22
2022-10-29T23:13:50.725Z,100872.09
2022-10-29T23:16:22.133Z,100876.00
2022-10-29T23:18:50.204Z,100875.19
2022-10-29T23:21:18.282Z,100882.16
2022-10-29T23:23:46.116Z,100880.22
2022-10-29T23:26:15.262Z,100874.69
2022-10-29T23:28:43.572Z,100878.09
2022-10-29T23:31:12.145Z,100872.41
2022-10-29T23:33:44.450Z,100877.75
2022-10-29T23:36:12.994Z,100874.03
2022-10-29T23:38:40.795Z,100879.38
2022-10-29T23:41:09.028Z,100880.97
2022-10-29T23:43:36.864Z,100869.31
2022-10-29T23:46:04.878Z,100876.91
2022-10-29T23:48:32.901Z,100868.13
2022-10-29T23:51:02.431Z,100877.22
2022-10-29T23:53:30.325Z,100874.81
2022-10-29T23:55:58.167Z,100879.34
2022-10-29T23:58:26.311Z,100882.09
